sensor_id;sensor_type;location;lat;lon;timestamp;pressure;altitude;pressure_sealevel;temperature;humidity
61119;BME280;51448;51.660;5.824;2023-06-22T00:01:23;101798.47;;;19.63;78.81
61119;BME280;51448;51.660;5.824;2023-06-22T00:03:50;101808.34;;;19.61;78.91
61119;BME280;51448;51.660;5.824;2023-06-22T00:06:18;101802.22;;;19.59;79.42
61119;BME280;51448;51.660;5.824;2023-06-22T00:08:46;101801.44;;;19.57;79.60
61119;BME280;51448;51.660;5.824;2023-06-22T00:11:14;101805.22;;;19.53;79.85
61119;BME280;51448;51.660;5.824;2023-06-22T00:13:42;101793.81;;;19.49;80.36
61119;BME280;51448;51.660;5.824;2023-06-22T00:16:09;101799.28;;;19.46;80.79
61119;BME280;51448;51.660;5.824;2023-06-22T00:18:37;101800.31;;;19.43;81.17
61119;BME280;51448;51.660;5.824;2023-06-22T00:21:04;101812.72;;;19.44;81.69
61119;BME280;51448;51.660;5.824;2023-06-22T00:23:33;101804.63;;;19.46;81.70
61119;BME280;51448;51.660;5.824;2023-06-22T00:26:02;101796.63;;;19.46;82.27
61119;BME280;51448;51.660;5.824;2023-06-22T00:28:29;101799.41;;;19.44;81.90
61119;BME280;51448;51.660;5.824;2023-06-22T00:30:57;101803.84;;;19.44;81.84
61119;BME280;51448;51.660;5.824;2023-06-22T00:33:26;101806.50;;;19.44;82.31
61119;BME280;51448;51.660;5.824;2023-06-22T00:35:55;101797.72;;;19.42;82.13
61119;BME280;51448;51.660;5.824;2023-06-22T00:38:23;101799.59;;;19.40;82.19
61119;BME280;51448;51.660;5.824;2023-06-22T00:40:51;101798.81;;;19.38;82.67
61119;BME280;51448;51.660;5.824;2023-06-22T00:43:18;101799.78;;;19.37;82.99
61119;BME280;51448;51.660;5.824;2023-06-22T00:45:46;101807.78;;;19.37;83.02
61119;BME280;51448;51.660;5.824;2023-06-22T00:48:17;101800.63;;;19.37;82.82
61119;BME280;51448;51.660;5.824;2023-06-22T00:50:47;101795.28;;;19.37;82.92
61119;BME280;51448;51.660;5.824;2023-06-22T00:53:18;101786.50;;;19.35;83.22
61119;BME280;51448;51.660;5.824;2023-06-22T00:55:46;101791.22;;;19.30;83.50
61119;BME280;51448;51.660;5.824;2023-06-22T00:58:14;101788.63;;;19.28;83.71
61119;BME280;51448;51.660;5.824;2023-06-22T01:00:42;101787.81;;;19.26;83.64
61119;BME280;51448;51.660;5.824;2023-06-22T01:03:10;101784.38;;;19.24;83.92
61119;BME280;51448;51.660;5.824;2023-06-22T01:05:39;101789.78;;;19.23;83.68
61119;BME280;51448;51.660;5.824;2023-06-22T01:11:26;101779.66;;;19.12;84.18
61119;BME280;51448;51.660;5.824;2023-06-22T01:14:39;101786.84;;;19.10;84.73
61119;BME280;51448;51.660;5.824;2023-06-22T01:17:08;101788.88;;;19.05;84.61
61119;BME280;51448;51.660;5.824;2023-06-22T01:19:50;101781.81;;;19.04;84.75
61119;BME280;51448;51.660;5.824;2023-06-22T01:22:27;101782.84;;;19.01;85.20
61119;BME280;51448;51.660;5.824;2023-06-22T01:25:12;101777.50;;;19.01;85.42
61119;BME280;51448;51.660;5.824;2023-06-22T01:27:59;101773.88;;;19.02;85.61
61119;BME280;51448;51.660;5.824;2023-06-22T01:30:29;101775.69;;;19.02;85.70
61119;BME280;51448;51.660;5.824;2023-06-22T01:33:00;101773.88;;;19.02;85.59
61119;BME280;51448;51.660;5.824;2023-06-22T01:35:32;101777.41;;;19.03;85.66
61119;BME280;51448;51.660;5.824;2023-06-22T01:38:01;101780.06;;;19.03;86.20
61119;BME280;51448;51.660;5.824;2023-06-22T01:40:29;101781.81;;;19.04;86.17
61119;BME280;51448;51.660;5.824;2023-06-22T01:43:02;101778.38;;;19.02;86.23
61119;BME280;51448;51.660;5.824;2023-06-22T01:45:31;101773.16;;;18.99;86.19
61119;BME280;51448;51.660;5.824;2023-06-22T01:47:59;101772.47;;;18.95;86.54
61119;BME280;51448;51.660;5.824;2023-06-22T01:50:28;101770.78;;;18.93;86.85
61119;BME280;51448;51.660;5.824;2023-06-22T01:52:56;101771.81;;;18.90;86.93
61119;BME280;51448;51.660;5.824;2023-06-22T01:55:26;101766.56;;;18.88;87.18
61119;BME280;51448;51.660;5.824;2023-06-22T01:57:53;101758.72;;;18.85;86.89
61119;BME280;51448;51.660;5.824;2023-06-22T02:00:24;101760.59;;;18.83;87.22
61119;BME280;51448;51.660;5.824;2023-06-22T02:02:57;101764.34;;;18.79;87.46
61119;BME280;51448;51.660;5.824;2023-06-22T02:05:51;101749.25;;;18.78;87.42
61119;BME280;51448;51.660;5.824;2023-06-22T02:08:24;101756.53;;;18.75;87.28
61119;BME280;51448;51.660;5.824;2023-06-22T02:11:00;101760.97;;;18.74;87.51
61119;BME280;51448;51.660;5.824;2023-06-22T02:13:30;101764.66;;;18.72;87.61
61119;BME280;51448;51.660;5.824;2023-06-22T02:16:00;101758.47;;;18.71;87.93
61119;BME280;51448;51.660;5.824;2023-06-22T02:18:28;101760.19;;;18.72;88.11
61119;BME280;51448;51.660;5.824;2023-06-22T02:20:56;101759.28;;;18.73;88.17
61119;BME280;51448;51.660;5.824;2023-06-22T02:23:24;101767.25;;;18.73;88.26
61119;BME280;51448;51.660;5.824;2023-06-22T02:25:51;101764.59;;;18.73;88.37
61119;BME280;51448;51.660;5.824;2023-06-22T02:28:19;101758.47;;;18.71;88.30
61119;BME280;51448;51.660;5.824;2023-06-22T02:30:46;101750.50;;;18.71;88.58
61119;BME280;51448;51.660;5.824;2023-06-22T02:33:14;101758.47;;;18.71;88.75
61119;BME280;51448;51.660;5.824;2023-06-22T02:35:42;101760.28;;;18.70;88.96
61119;BME280;51448;51.660;5.824;2023-06-22T02:38:14;101755.03;;;18.69;88.75
61119;BME280;51448;51.660;5.824;2023-06-22T02:40:42;101745.28;;;18.68;88.68
61119;BME280;51448;51.660;5.824;2023-06-22T02:43:10;101743.72;;;18.64;88.69
61119;BME280;51448;51.660;5.824;2023-06-22T02:45:38;101740.25;;;18.62;89.03
61119;BME280;51448;51.660;5.824;2023-06-22T02:48:06;101742.13;;;18.60;89.21
61119;BME280;51448;51.660;5.824;2023-06-22T02:50:34;101735.22;;;18.56;89.21
61119;BME280;51448;51.660;5.824;2023-06-22T02:53:02;101738.03;;;18.53;89.56
61119;BME280;51448;51.660;5.824;2023-06-22T02:55:35;101724.00;;;18.49;89.77
61119;BME280;51448;51.660;5.824;2023-06-22T02:58:02;101732.16;;;18.46;89.79
61119;BME280;51448;51.660;5.824;2023-06-22T03:00:34;101723.44;;;18.42;90.10
61119;BME280;51448;51.660;5.824;2023-06-22T03:03:02;101727.97;;;18.40;90.28
61119;BME280;51448;51.660;5.824;2023-06-22T03:05:30;101723.66;;;18.38;90.33
61119;BME280;51448;51.660;5.824;2023-06-22T03:08:00;101726.38;;;18.36;90.32
61119;BME280;51448;51.660;5.824;2023-06-22T03:10:31;101732.91;;;18.29;89.58
61119;BME280;51448;51.660;5.824;2023-06-22T03:12:59;101724.13;;;18.27;90.06
61119;BME280;51448;51.660;5.824;2023-06-22T03:15:26;101716.00;;;18.30;90.56
61119;BME280;51448;51.660;5.824;2023-06-22T03:17:56;101719.53;;;18.30;90.75
61119;BME280;51448;51.660;5.824;2023-06-22T03:20:24;101710.69;;;18.30;90.68
61119;BME280;51448;51.660;5.824;2023-06-22T03:22:54;101707.16;;;18.29;90.76
61119;BME280;51448;51.660;5.824;2023-06-22T03:25:23;101700.16;;;18.27;90.80
61119;BME280;51448;51.660;5.824;2023-06-22T03:27:50;101707.44;;;18.23;90.75
61119;BME280;51448;51.660;5.824;2023-06-22T03:30:18;101711.09;;;18.21;90.97
61119;BME280;51448;51.660;5.824;2023-06-22T03:32:46;101712.97;;;18.19;91.09
61119;BME280;51448;51.660;5.824;2023-06-22T03:35:14;101711.25;;;18.18;91.39
61119;BME280;51448;51.660;5.824;2023-06-22T03:37:42;101714.78;;;18.18;91.43
61119;BME280;51448;51.660;5.824;2023-06-22T03:40:10;101712.03;;;18.20;91.77
61119;BME280;51448;51.660;5.824;2023-06-22T03:42:38;101705.75;;;18.21;91.76
61119;BME280;51448;51.660;5.824;2023-06-22T03:45:06;101700.53;;;18.19;91.79
61119;BME280;51448;51.660;5.824;2023-06-22T03:47:34;101702.31;;;18.19;91.70
61119;BME280;51448;51.660;5.824;2023-06-22T03:50:03;101695.28;;;18.18;91.78
61119;BME280;51448;51.660;5.824;2023-06-22T03:52:31;101697.22;;;18.14;91.72
61119;BME280;51448;51.660;5.824;2023-06-22T03:54:59;101703.53;;;18.12;91.83
61119;BME280;51448;51.660;5.824;2023-06-22T03:57:27;101700.16;;;18.08;91.76
61119;BME280;51448;51.660;5.824;2023-06-22T03:59:56;101702.88;;;18.06;91.83
61119;BME280;51448;51.660;5.824;2023-06-22T04:02:24;101700.31;;;18.05;91.75
61119;BME280;51448;51.660;5.824;2023-06-22T04:04:53;101698.63;;;18.02;91.93
61119;BME280;51448;51.660;5.824;2023-06-22T04:07:20;101696.06;;;18.01;92.38
61119;BME280;51448;51.660;5.824;2023-06-22T04:09:48;101697.03;;;17.98;92.44
61119;BME280;51448;51.660;5.824;2023-06-22T04:12:16;101699.84;;;17.95;92.61
61119;BME280;51448;51.660;5.824;2023-06-22T04:14:46;101694.47;;;17.97;92.83
61119;BME280;51448;51.660;5.824;2023-06-22T04:17:13;101688.25;;;17.96;93.12
61119;BME280;51448;51.660;5.824;2023-06-22T04:19:42;101691.81;;;17.97;93.32
61119;BME280;51448;51.660;5.824;2023-06-22T04:22:09;101688.19;;;17.98;93.51
61119;BME280;51448;51.660;5.824;2023-06-22T04:24:37;101689.72;;;18.03;93.92
61119;BME280;51448;51.660;5.824;2023-06-22T04:27:05;101696.56;;;18.09;94.27
61119;BME280;51448;51.660;5.824;2023-06-22T04:29:33;101694.53;;;18.14;94.92
61119;BME280;51448;51.660;5.824;2023-06-22T04:32:00;101689.94;;;18.18;94.79
61119;BME280;51448;51.660;5.824;2023-06-22T04:34:32;101695.00;;;18.24;94.78
61119;BME280;51448;51.660;5.824;2023-06-22T04:36:59;101694.72;;;18.30;94.82
61119;BME280;51448;51.660;5.824;2023-06-22T04:39:27;101695.34;;;18.35;94.94
61119;BME280;51448;51.660;5.824;2023-06-22T04:41:55;101683.59;;;18.39;94.96
61119;BME280;51448;51.660;5.824;2023-06-22T04:44:27;101680.81;;;18.42;95.47
61119;BME280;51448;51.660;5.824;2023-06-22T04:46:58;101680.59;;;18.47;95.81
61119;BME280;51448;51.660;5.824;2023-06-22T04:49:30;101680.16;;;18.56;95.54
61119;BME280;51448;51.660;5.824;2023-06-22T04:52:03;101675.09;;;18.69;95.73
61119;BME280;51448;51.660;5.824;2023-06-22T04:54:33;101680.63;;;18.83;95.74
61119;BME280;51448;51.660;5.824;2023-06-22T04:57:05;101682.53;;;18.99;95.67
61119;BME280;51448;51.660;5.824;2023-06-22T04:59:39;101689.91;;;19.11;95.47
61119;BME280;51448;51.660;5.824;2023-06-22T05:02:09;101692.13;;;19.20;94.93
61119;BME280;51448;51.660;5.824;2023-06-22T05:04:37;101691.50;;;19.33;94.77
61119;BME280;51448;51.660;5.824;2023-06-22T05:07:07;101692.59;;;19.46;94.30
61119;BME280;51448;51.660;5.824;2023-06-22T05:09:34;101686.94;;;19.52;94.29
61119;BME280;51448;51.660;5.824;2023-06-22T05:12:03;101688.34;;;19.59;94.19
61119;BME280;51448;51.660;5.824;2023-06-22T05:14:34;101691.47;;;19.67;93.90
61119;BME280;51448;51.660;5.824;2023-06-22T05:17:02;101697.56;;;19.71;94.09
61119;BME280;51448;51.660;5.824;2023-06-22T05:19:31;101691.00;;;19.77;94.19
61119;BME280;51448;51.660;5.824;2023-06-22T05:22:01;101693.34;;;19.83;94.20
61119;BME280;51448;51.660;5.824;2023-06-22T05:24:29;101693.91;;;19.89;94.02
61119;BME280;51448;51.660;5.824;2023-06-22T05:26:56;101688.13;;;19.97;94.10
61119;BME280;51448;51.660;5.824;2023-06-22T05:29:24;101688.50;;;20.07;94.20
61119;BME280;51448;51.660;5.824;2023-06-22T05:31:53;101695.91;;;20.18;93.72
61119;BME280;51448;51.660;5.824;2023-06-22T05:34:21;101694.66;;;20.25;93.84
61119;BME280;51448;51.660;5.824;2023-06-22T05:36:49;101700.25;;;20.36;93.88
61119;BME280;51448;51.660;5.824;2023-06-22T05:39:16;101702.16;;;20.50;93.52
61119;BME280;51448;51.660;5.824;2023-06-22T05:41:45;101705.72;;;20.66;92.91
61119;BME280;51448;51.660;5.824;2023-06-22T05:44:14;101708.75;;;20.76;92.77
61119;BME280;51448;51.660;5.824;2023-06-22T05:46:43;101710.22;;;20.82;92.33
61119;BME280;51448;51.660;5.824;2023-06-22T05:49:15;101698.63;;;20.81;91.93
61119;BME280;51448;51.660;5.824;2023-06-22T05:51:43;101700.44;;;20.81;92.14
61119;BME280;51448;51.660;5.824;2023-06-22T05:54:11;101689.84;;;20.79;92.09
61119;BME280;51448;51.660;5.824;2023-06-22T05:56:41;101685.44;;;20.78;92.32
61119;BME280;51448;51.660;5.824;2023-06-22T05:59:08;101691.66;;;20.79;92.20
61119;BME280;51448;51.660;5.824;2023-06-22T06:01:36;101695.94;;;20.81;92.28
61119;BME280;51448;51.660;5.824;2023-06-22T06:04:05;101699.25;;;20.86;92.41
61119;BME280;51448;51.660;5.824;2023-06-22T06:06:35;101695.44;;;20.90;92.27
61119;BME280;51448;51.660;5.824;2023-06-22T06:09:04;101698.69;;;20.96;92.08
61119;BME280;51448;51.660;5.824;2023-06-22T06:11:33;101709.03;;;21.02;92.07
61119;BME280;51448;51.660;5.824;2023-06-22T06:14:00;101704.38;;;21.05;91.70
61119;BME280;51448;51.660;5.824;2023-06-22T06:16:28;101693.50;;;21.08;91.83
61119;BME280;51448;51.660;5.824;2023-06-22T06:18:56;101686.25;;;21.10;91.46
61119;BME280;51448;51.660;5.824;2023-06-22T06:21:25;101688.81;;;21.12;90.98
61119;BME280;51448;51.660;5.824;2023-06-22T06:23:57;101688.16;;;21.08;91.05
61119;BME280;51448;51.660;5.824;2023-06-22T06:26:25;101683.59;;;21.10;91.08
61119;BME280;51448;51.660;5.824;2023-06-22T06:28:57;101682.63;;;21.12;90.77
61119;BME280;51448;51.660;5.824;2023-06-22T06:31:26;101685.97;;;21.15;90.73
61119;BME280;51448;51.660;5.824;2023-06-22T06:33:56;101682.25;;;21.18;90.48
61119;BME280;51448;51.660;5.824;2023-06-22T06:36:24;101686.56;;;21.20;90.53
61119;BME280;51448;51.660;5.824;2023-06-22T06:38:52;101686.19;;;21.26;91.14
61119;BME280;51448;51.660;5.824;2023-06-22T06:41:19;101687.72;;;21.30;90.55
61119;BME280;51448;51.660;5.824;2023-06-22T06:43:48;101682.97;;;21.36;90.59
61119;BME280;51448;51.660;5.824;2023-06-22T06:46:15;101679.00;;;21.43;90.81
61119;BME280;51448;51.660;5.824;2023-06-22T06:48:43;101683.88;;;21.50;90.39
61119;BME280;51448;51.660;5.824;2023-06-22T06:51:11;101683.59;;;21.55;90.03
61119;BME280;51448;51.660;5.824;2023-06-22T06:53:39;101674.63;;;21.56;90.22
61119;BME280;51448;51.660;5.824;2023-06-22T06:56:06;101676.16;;;21.60;89.96
61119;BME280;51448;51.660;5.824;2023-06-22T06:58:34;101679.78;;;21.59;90.16
61119;BME280;51448;51.660;5.824;2023-06-22T07:01:02;101683.06;;;21.64;90.16
61119;BME280;51448;51.660;5.824;2023-06-22T07:03:30;101675.03;;;21.64;90.48
61119;BME280;51448;51.660;5.824;2023-06-22T07:05:59;101668.81;;;21.64;89.80
61119;BME280;51448;51.660;5.824;2023-06-22T07:08:27;101665.47;;;21.60;90.48
61119;BME280;51448;51.660;5.824;2023-06-22T07:10:56;101666.22;;;21.62;90.11
61119;BME280;51448;51.660;5.824;2023-06-22T07:13:23;101667.00;;;21.64;89.99
61119;BME280;51448;51.660;5.824;2023-06-22T07:15:51;101664.41;;;21.63;89.89
61119;BME280;51448;51.660;5.824;2023-06-22T07:18:18;101658.88;;;21.66;90.15
61119;BME280;51448;51.660;5.824;2023-06-22T07:20:46;101653.22;;;21.70;90.37
61119;BME280;51448;51.660;5.824;2023-06-22T07:23:15;101653.91;;;21.74;90.17
61119;BME280;51448;51.660;5.824;2023-06-22T07:25:44;101658.22;;;21.77;90.06
61119;BME280;51448;51.660;5.824;2023-06-22T07:28:11;101653.91;;;21.74;89.97
61119;BME280;51448;51.660;5.824;2023-06-22T07:30:39;101659.44;;;21.71;89.48
61119;BME280;51448;51.660;5.824;2023-06-22T07:33:07;101652.38;;;21.70;89.79
61119;BME280;51448;51.660;5.824;2023-06-22T07:35:36;101647.88;;;21.70;90.16
61119;BME280;51448;51.660;5.824;2023-06-22T07:38:04;101644.13;;;21.73;89.89
61119;BME280;51448;51.660;5.824;2023-06-22T07:40:33;101651.09;;;21.76;90.05
61119;BME280;51448;51.660;5.824;2023-06-22T07:43:02;101649.03;;;21.81;89.78
61119;BME280;51448;51.660;5.824;2023-06-22T07:45:30;101649.69;;;21.84;90.56
61119;BME280;51448;51.660;5.824;2023-06-22T07:48:01;101646.44;;;21.94;89.97
61119;BME280;51448;51.660;5.824;2023-06-22T07:50:29;101645.94;;;22.01;89.54
61119;BME280;51448;51.660;5.824;2023-06-22T07:52:57;101652.53;;;22.10;89.95
61119;BME280;51448;51.660;5.824;2023-06-22T07:55:25;101639.59;;;22.17;89.23
61119;BME280;51448;51.660;5.824;2023-06-22T07:57:52;101639.06;;;22.26;89.58
61119;BME280;51448;51.660;5.824;2023-06-22T08:00:20;101626.69;;;22.38;88.61
61119;BME280;51448;51.660;5.824;2023-06-22T08:02:48;101622.44;;;22.48;87.95
61119;BME280;51448;51.660;5.824;2023-06-22T08:05:16;101616.28;;;22.60;87.61
61119;BME280;51448;51.660;5.824;2023-06-22T08:08:02;101601.06;;;22.74;87.01
61119;BME280;51448;51.660;5.824;2023-06-22T08:10:30;101593.78;;;22.88;87.10
61119;BME280;51448;51.660;5.824;2023-06-22T08:12:58;101590.22;;;23.02;86.36
61119;BME280;51448;51.660;5.824;2023-06-22T08:15:26;101593.13;;;23.12;85.29
61119;BME280;51448;51.660;5.824;2023-06-22T08:17:54;101596.34;;;23.17;84.89
61119;BME280;51448;51.660;5.824;2023-06-22T08:20:22;101597.00;;;23.21;84.18
61119;BME280;51448;51.660;5.824;2023-06-22T08:22:50;101585.06;;;23.25;84.52
61119;BME280;51448;51.660;5.824;2023-06-22T08:25:17;101590.88;;;23.32;85.34
61119;BME280;51448;51.660;5.824;2023-06-22T08:27:46;101581.19;;;23.42;84.80
61119;BME280;51448;51.660;5.824;2023-06-22T08:30:17;101570.03;;;23.48;84.30
61119;BME280;51448;51.660;5.824;2023-06-22T08:32:48;101571.53;;;23.52;83.97
61119;BME280;51448;51.660;5.824;2023-06-22T08:35:16;101563.16;;;23.57;83.34
61119;BME280;51448;51.660;5.824;2023-06-22T08:37:43;101568.09;;;23.63;83.06
61119;BME280;51448;51.660;5.824;2023-06-22T08:40:18;101567.75;;;23.67;81.87
61119;BME280;51448;51.660;5.824;2023-06-22T08:42:49;101573.97;;;23.68;81.59
61119;BME280;51448;51.660;5.824;2023-06-22T08:45:17;101570.97;;;23.73;81.82
61119;BME280;51448;51.660;5.824;2023-06-22T08:47:46;101553.69;;;23.77;81.22
61119;BME280;51448;51.660;5.824;2023-06-22T08:50:14;101558.63;;;23.83;80.30
61119;BME280;51448;51.660;5.824;2023-06-22T08:52:41;101555.72;;;23.86;80.41
61119;BME280;51448;51.660;5.824;2023-06-22T08:55:10;101556.22;;;23.91;80.91
61119;BME280;51448;51.660;5.824;2023-06-22T08:57:38;101557.41;;;24.00;80.94
61119;BME280;51448;51.660;5.824;2023-06-22T09:00:07;101556.59;;;24.10;80.82
61119;BME280;51448;51.660;5.824;2023-06-22T09:02:47;101556.16;;;24.17;79.88
61119;BME280;51448;51.660;5.824;2023-06-22T09:05:16;101546.16;;;24.19;79.60
61119;BME280;51448;51.660;5.824;2023-06-22T09:07:47;101542.25;;;24.23;79.44
61119;BME280;51448;51.660;5.824;2023-06-22T09:10:38;101548.59;;;24.22;78.94
61119;BME280;51448;51.660;5.824;2023-06-22T09:13:06;101547.09;;;24.18;78.86
61119;BME280;51448;51.660;5.824;2023-06-22T09:15:33;101545.50;;;24.15;79.63
61119;BME280;51448;51.660;5.824;2023-06-22T09:18:02;101549.03;;;24.16;79.65
61119;BME280;51448;51.660;5.824;2023-06-22T09:20:29;101546.34;;;24.16;79.86
61119;BME280;51448;51.660;5.824;2023-06-22T09:22:58;101544.88;;;24.12;79.17
61119;BME280;51448;51.660;5.824;2023-06-22T09:25:25;101542.63;;;24.05;79.29
61119;BME280;51448;51.660;5.824;2023-06-22T09:27:53;101537.50;;;24.02;79.92
61119;BME280;51448;51.660;5.824;2023-06-22T09:30:21;101533.97;;;24.02;79.95
61119;BME280;51448;51.660;5.824;2023-06-22T09:32:49;101539.34;;;24.02;79.72
61119;BME280;51448;51.660;5.824;2023-06-22T09:35:17;101536.00;;;23.98;79.79
61119;BME280;51448;51.660;5.824;2023-06-22T09:37:46;101537.97;;;23.96;79.52
61119;BME280;51448;51.660;5.824;2023-06-22T09:40:13;101538.31;;;23.92;79.61
61119;BME280;51448;51.660;5.824;2023-06-22T09:42:44;101545.72;;;23.88;79.57
61119;BME280;51448;51.660;5.824;2023-06-22T09:45:12;101542.41;;;23.84;79.14
61119;BME280;51448;51.660;5.824;2023-06-22T09:47:39;101536.50;;;23.79;78.92
61119;BME280;51448;51.660;5.824;2023-06-22T09:50:07;101540.47;;;23.74;77.96
61119;BME280;51448;51.660;5.824;2023-06-22T09:52:35;101540.81;;;23.69;77.27
61119;BME280;51448;51.660;5.824;2023-06-22T09:55:06;101533.06;;;23.64;77.47
61119;BME280;51448;51.660;5.824;2023-06-22T09:57:34;101535.00;;;23.62;77.42
61119;BME280;51448;51.660;5.824;2023-06-22T10:00:03;101524.50;;;23.59;77.32
61119;BME280;51448;51.660;5.824;2023-06-22T10:02:36;101527.38;;;23.56;77.02
61119;BME280;51448;51.660;5.824;2023-06-22T10:05:04;101533.94;;;23.52;76.84
61119;BME280;51448;51.660;5.824;2023-06-22T10:07:32;101536.13;;;23.47;77.35
61119;BME280;51448;51.660;5.824;2023-06-22T10:09:59;101538.91;;;23.45;77.63
61119;BME280;51448;51.660;5.824;2023-06-22T10:12:27;101540.84;;;23.43;78.09
61119;BME280;51448;51.660;5.824;2023-06-22T10:14:55;101531.19;;;23.41;78.25
61119;BME280;51448;51.660;5.824;2023-06-22T10:17:23;101532.13;;;23.40;78.51
61119;BME280;51448;51.660;5.824;2023-06-22T10:19:50;101537.50;;;23.40;78.78
61119;BME280;51448;51.660;5.824;2023-06-22T10:22:18;101530.94;;;23.44;79.02
61119;BME280;51448;51.660;5.824;2023-06-22T10:24:46;101518.41;;;23.44;79.45
61119;BME280;51448;51.660;5.824;2023-06-22T10:27:13;101513.78;;;23.46;79.33
61119;BME280;51448;51.660;5.824;2023-06-22T10:29:41;101515.81;;;23.43;79.75
61119;BME280;51448;51.660;5.824;2023-06-22T10:32:09;101505.09;;;23.43;80.15
61119;BME280;51448;51.660;5.824;2023-06-22T10:34:36;101502.41;;;23.43;79.85
61119;BME280;51448;51.660;5.824;2023-06-22T10:37:04;101496.38;;;23.39;79.81
61119;BME280;51448;51.660;5.824;2023-06-22T10:39:32;101501.75;;;23.39;80.06
61119;BME280;51448;51.660;5.824;2023-06-22T10:42:00;101498.97;;;23.41;80.05
61119;BME280;51448;51.660;5.824;2023-06-22T10:44:28;101499.06;;;23.39;80.26
61119;BME280;51448;51.660;5.824;2023-06-22T10:46:55;101497.25;;;23.40;80.29
61119;BME280;51448;51.660;5.824;2023-06-22T10:49:26;101495.31;;;23.42;79.79
61119;BME280;51448;51.660;5.824;2023-06-22T10:51:53;101498.00;;;23.42;79.96
61119;BME280;51448;51.660;5.824;2023-06-22T10:54:21;101505.94;;;23.43;79.71
61119;BME280;51448;51.660;5.824;2023-06-22T10:56:48;101498.75;;;23.44;79.27
61119;BME280;51448;51.660;5.824;2023-06-22T10:59:16;101506.78;;;23.44;79.01
61119;BME280;51448;51.660;5.824;2023-06-22T11:01:44;101517.53;;;23.44;78.71
61119;BME280;51448;51.660;5.824;2023-06-22T11:04:12;101528.41;;;23.42;78.64
61119;BME280;51448;51.660;5.824;2023-06-22T11:06:39;101542.88;;;23.40;78.98
61119;BME280;51448;51.660;5.824;2023-06-22T11:09:07;101544.06;;;23.36;79.00
61119;BME280;51448;51.660;5.824;2023-06-22T11:11:38;101552.25;;;23.34;80.12
61119;BME280;51448;51.660;5.824;2023-06-22T11:14:06;101558.47;;;23.35;81.40
61119;BME280;51448;51.660;5.824;2023-06-22T11:16:33;101556.72;;;23.34;82.42
61119;BME280;51448;51.660;5.824;2023-06-22T11:19:04;101565.97;;;23.29;83.57
61119;BME280;51448;51.660;5.824;2023-06-22T11:21:32;101561.91;;;23.24;84.02
61119;BME280;51448;51.660;5.824;2023-06-22T11:24:00;101563.19;;;23.18;84.70
61119;BME280;51448;51.660;5.824;2023-06-22T11:26:28;101566.50;;;23.09;85.30
61119;BME280;51448;51.660;5.824;2023-06-22T11:28:56;101574.31;;;22.99;86.50
61119;BME280;51448;51.660;5.824;2023-06-22T11:31:23;101571.38;;;22.89;86.85
61119;BME280;51448;51.660;5.824;2023-06-22T11:33:53;101572.00;;;22.80;87.51
61119;BME280;51448;51.660;5.824;2023-06-22T11:36:21;101560.94;;;22.72;88.25
61119;BME280;51448;51.660;5.824;2023-06-22T11:38:49;101566.53;;;22.69;89.30
61119;BME280;51448;51.660;5.824;2023-06-22T11:41:16;101562.34;;;22.65;89.59
61119;BME280;51448;51.660;5.824;2023-06-22T11:43:45;101562.00;;;22.57;89.51
61119;BME280;51448;51.660;5.824;2023-06-22T11:46:12;101559.69;;;22.38;89.59
61119;BME280;51448;51.660;5.824;2023-06-22T11:48:40;101560.13;;;22.17;90.37
61119;BME280;51448;51.660;5.824;2023-06-22T11:51:08;101556.91;;;21.98;92.59
61119;BME280;51448;51.660;5.824;2023-06-22T11:53:36;101566.97;;;21.80;92.93
61119;BME280;51448;51.660;5.824;2023-06-22T11:56:03;101573.22;;;21.66;93.66
61119;BME280;51448;51.660;5.824;2023-06-22T11:58:31;101567.75;;;21.53;94.74
61119;BME280;51448;51.660;5.824;2023-06-22T12:00:59;101549.97;;;21.38;95.27
61119;BME280;51448;51.660;5.824;2023-06-22T12:03:26;101549.88;;;21.25;95.89
61119;BME280;51448;51.660;5.824;2023-06-22T12:05:54;101534.66;;;21.11;96.64
61119;BME280;51448;51.660;5.824;2023-06-22T12:08:22;101514.00;;;20.99;97.98
61119;BME280;51448;51.660;5.824;2023-06-22T12:10:50;101502.06;;;20.90;98.08
61119;BME280;51448;51.660;5.824;2023-06-22T12:13:18;101482.69;;;20.86;99.52
61119;BME280;51448;51.660;5.824;2023-06-22T12:15:46;101465.41;;;20.78;100.00
61119;BME280;51448;51.660;5.824;2023-06-22T12:18:13;101445.41;;;20.69;100.00
61119;BME280;51448;51.660;5.824;2023-06-22T12:20:44;101459.06;;;20.64;100.00
61119;BME280;51448;51.660;5.824;2023-06-22T12:23:12;101470.13;;;20.58;100.00
61119;BME280;51448;51.660;5.824;2023-06-22T12:25:39;101477.53;;;20.53;100.00
61119;BME280;51448;51.660;5.824;2023-06-22T12:28:07;101471.22;;;20.54;100.00
61119;BME280;51448;51.660;5.824;2023-06-22T12:30:35;101473.03;;;20.54;100.00
61119;BME280;51448;51.660;5.824;2023-06-22T12:33:02;101466.41;;;20.61;100.00
61119;BME280;51448;51.660;5.824;2023-06-22T12:35:30;101461.72;;;20.64;100.00
61119;BME280;51448;51.660;5.824;2023-06-22T12:37:58;101464.41;;;20.64;100.00
61119;BME280;51448;51.660;5.824;2023-06-22T12:40:26;101466.16;;;20.65;100.00
61119;BME280;51448;51.660;5.824;2023-06-22T12:42:55;101460.81;;;20.65;100.00
61119;BME280;51448;51.660;5.824;2023-06-22T12:45:22;101463.56;;;20.64;100.00
61119;BME280;51448;51.660;5.824;2023-06-22T12:47:50;101457.44;;;20.62;100.00
61119;BME280;51448;51.660;5.824;2023-06-22T12:50:18;101454.00;;;20.60;100.00
61119;BME280;51448;51.660;5.824;2023-06-22T12:52:45;101454.94;;;20.59;100.00
61119;BME280;51448;51.660;5.824;2023-06-22T12:55:13;101436.22;;;20.59;100.00
61119;BME280;51448;51.660;5.824;2023-06-22T12:57:41;101436.22;;;20.59;100.00
61119;BME280;51448;51.660;5.824;2023-06-22T13:00:09;101430.81;;;20.60;100.00
61119;BME280;51448;51.660;5.824;2023-06-22T13:02:40;101435.09;;;20.63;100.00